Time;durP1;ratioP1;P1;durP2;ratioP2;P2;SDS_P1;SDS_P2;PMS_P1;PMS_P2;Temp;Humidity;BMP_temperature;BMP_pressure;BME280_temperature;BME280_humidity;BME280_pressure;Samples;Min_cycle;Max_cycle;Signal;HPM_P1;HPM_P2
2021/12/15 00:01:17;;;;;;;38.63;31.42;;;5.70;81.60;;;;;;10980721;32;20050;-69
2021/12/15 00:07:21;;;;;;;45.08;33.58;;;5.90;82.30;;;;;;10982791;32;20429;-69
2021/12/15 00:13:23;;;;;;;42.40;34.85;;;5.80;82.20;;;;;;10982415;32;20046;-69
2021/12/15 00:19:27;;;;;;;32.80;27.55;;;5.80;82.10;;;;;;10982194;32;20308;-69
2021/12/15 00:25:33;;;;;;;33.38;28.33;;;5.70;81.80;;;;;;10982016;32;20022;-69
2021/12/15 00:31:37;;;;;;;38.38;26.60;;;5.40;81.80;;;;;;10981911;32;20019;-69
2021/12/15 00:37:40;;;;;;;41.60;34.08;;;5.20;82.50;;;;;;10980818;32;20041;-69
2021/12/15 00:43:42;;;;;;;38.30;30.33;;;5.30;82.60;;;;;;10981247;32;20030;-69
2021/12/15 00:49:45;;;;;;;37.58;32.03;;;5.50;82.90;;;;;;10981147;32;20014;-69
2021/12/15 00:55:47;;;;;;;31.87;27.75;;;5.40;82.60;;;;;;10980982;32;20426;-69
2021/12/15 01:01:51;;;;;;;37.38;29.15;;;5.50;82.40;;;;;;10980796;32;20417;-69
2021/12/15 01:07:53;;;;;;;42.70;31.55;;;5.30;82.30;;;;;;10980652;32;20019;-69
2021/12/15 01:20:28;;;;;;;39.58;29.92;;;5.30;82.30;;;;;;10980219;32;20019;-69
2021/12/15 01:26:30;;;;;;;38.83;29.65;;;5.40;82.50;;;;;;10980056;32;20433;-69
2021/12/15 01:32:36;;;;;;;32.42;27.05;;;5.50;82.90;;;;;;10979889;32;20051;-69
2021/12/15 01:38:43;;;;;;;26.87;23.48;;;5.40;82.50;;;;;;10979848;32;20033;-69
2021/12/15 01:51:10;;;;;;;25.50;21.40;;;5.20;82.30;;;;;;10862848;32;20047;-69
2021/12/15 01:57:14;;;;;;;32.50;21.85;;;4.90;82.30;;;;;;10861607;32;20035;-69
2021/12/15 02:03:22;;;;;;;26.10;20.92;;;4.60;82.80;;;;;;10859188;32;20039;-69
2021/12/15 02:15:36;;;;;;;;;;;4.60;83.20;;;;;;10861261;32;20036;-69
2021/12/15 02:21:38;;;;;;;29.70;22.65;;;4.80;83.00;;;;;;10860757;32;19926;-69
2021/12/15 02:27:41;;;;;;;27.23;23.67;;;4.90;82.70;;;;;;10865933;32;20027;-69
2021/12/15 02:40:19;;;;;;;26.48;20.45;;;5.00;82.50;;;;;;10789970;33;20340;-69
2021/12/15 02:46:22;;;;;;;23.98;18.80;;;5.00;82.60;;;;;;10789231;33;20055;-69
2021/12/15 02:52:25;;;;;;;24.52;19.55;;;5.00;82.60;;;;;;10776720;33;20024;-69
2021/12/15 02:58:33;;;;;;;25.88;20.95;;;4.90;82.40;;;;;;10789444;33;20090;-69
2021/12/15 03:04:49;;;;;;;23.75;19.60;;;4.80;82.50;;;;;;10777202;32;20051;-69
2021/12/15 03:17:16;;;;;;;26.55;18.98;;;4.90;82.30;;;;;;10867241;32;20308;-69
2021/12/15 03:23:24;;;;;;;24.00;16.65;;;4.90;82.40;;;;;;10865623;32;20050;-69
2021/12/15 03:36:05;;;;;;;21.15;18.30;;;4.50;82.90;;;;;;10865221;32;20032;-69
2021/12/15 03:42:09;;;;;;;23.20;17.58;;;4.70;82.70;;;;;;10851900;32;20474;-69
2021/12/15 03:48:15;;;;;;;19.67;16.42;;;4.70;82.50;;;;;;10864981;32;20038;-69
2021/12/15 03:54:17;;;;;;;24.40;16.87;;;4.70;82.50;;;;;;10864857;32;20012;-69
2021/12/15 04:00:21;;;;;;;22.30;17.50;;;4.70;82.40;;;;;;10851411;32;20331;-69
2021/12/15 04:06:28;;;;;;;21.12;16.55;;;4.70;82.30;;;;;;10864353;32;20028;-69
2021/12/15 04:12:31;;;;;;;22.50;16.98;;;4.70;82.30;;;;;;10864235;32;20323;-69
2021/12/15 04:18:36;;;;;;;18.42;13.82;;;4.70;82.20;;;;;;10864060;32;20024;-68
2021/12/15 04:24:38;;;;;;;22.87;16.17;;;4.50;82.20;;;;;;10863910;32;20081;-69
2021/12/15 04:30:47;;;;;;;16.42;14.48;;;4.40;82.50;;;;;;10863679;32;20020;-69
2021/12/15 04:37:04;;;;;;;22.30;16.48;;;4.30;82.50;;;;;;10859836;32;20027;-68
2021/12/15 04:43:07;;;;;;;18.55;12.90;;;4.20;82.90;;;;;;10863369;32;20023;-68
2021/12/15 04:49:13;;;;;;;18.62;13.20;;;4.30;82.70;;;;;;10862685;32;20323;-68
2021/12/15 04:55:16;;;;;;;20.77;14.25;;;4.20;82.80;;;;;;10863083;32;20012;-69
2021/12/15 05:01:19;;;;;;;14.77;11.55;;;4.20;83.00;;;;;;10862860;32;20056;-69
2021/12/15 05:07:21;;;;;;;17.55;14.75;;;4.40;82.90;;;;;;10862680;32;20035;-69
2021/12/15 05:13:24;;;;;;;17.00;13.02;;;4.50;82.70;;;;;;10862551;32;20024;-69
2021/12/15 05:19:27;;;;;;;20.67;14.90;;;4.70;82.40;;;;;;10862332;32;20024;-69
2021/12/15 05:25:30;;;;;;;17.50;13.00;;;4.90;82.20;;;;;;10862298;32;20046;-69
2021/12/15 05:31:32;;;;;;;16.30;10.93;;;5.00;82.40;;;;;;10861902;32;20024;-69
2021/12/15 05:38:04;;;;;;;19.80;14.07;;;4.90;82.00;;;;;;10862007;32;20061;-69
2021/12/15 05:44:08;;;;;;;20.85;14.65;;;4.80;82.40;;;;;;10858612;32;20019;-73
2021/12/15 05:50:12;;;;;;;15.82;11.02;;;4.70;82.70;;;;;;10861539;32;20024;-73
2021/12/15 05:56:18;;;;;;;17.23;12.43;;;4.70;82.30;;;;;;10861447;32;20016;-73
2021/12/15 06:02:20;;;;;;;17.23;12.82;;;4.80;82.80;;;;;;10867375;32;20348;-74
2021/12/15 06:08:22;;;;;;;20.42;15.65;;;5.00;82.50;;;;;;10867962;32;20358;-73
2021/12/15 06:14:24;;;;;;;15.93;13.95;;;5.20;82.30;;;;;;10867782;32;20020;-73
2021/12/15 06:20:28;;;;;;;13.80;10.68;;;5.40;82.00;;;;;;10865202;32;20020;-73
2021/12/15 06:26:30;;;;;;;19.62;14.73;;;5.50;81.50;;;;;;10867307;32;20032;-73
2021/12/15 06:32:33;;;;;;;19.25;14.68;;;5.60;81.40;;;;;;10867192;32;20293;-73
2021/12/15 06:38:40;;;;;;;17.60;12.65;;;5.60;81.20;;;;;;10866761;32;20023;-74
2021/12/15 06:44:42;;;;;;;13.45;9.52;;;5.70;80.80;;;;;;10866604;32;20047;-74
2021/12/15 07:03:26;;;;;;;18.27;14.13;;;5.20;81.70;;;;;;10862504;32;20050;-73
2021/12/15 07:09:31;;;;;;;18.95;14.00;;;5.50;81.30;;;;;;10852041;32;20051;-73
2021/12/15 07:15:36;;;;;;;17.67;12.18;;;5.70;80.90;;;;;;10857832;32;20024;-73
2021/12/15 07:21:41;;;;;;;20.35;14.27;;;5.80;80.70;;;;;;10848032;32;20202;-73
2021/12/15 07:27:44;;;;;;;23.25;19.50;;;5.70;80.80;;;;;;10865405;32;20100;-73
2021/12/15 07:33:46;;;;;;;20.95;15.98;;;5.90;80.90;;;;;;10864150;32;20340;-73
2021/12/15 07:39:58;;;;;;;23.40;16.17;;;6.00;80.70;;;;;;10825203;32;20067;-73
2021/12/15 07:46:05;;;;;;;21.75;15.00;;;6.20;80.70;;;;;;10814782;33;20023;-73
2021/12/15 07:52:08;;;;;;;20.27;13.25;;;6.20;80.30;;;;;;10827908;33;20074;-73
2021/12/15 07:59:10;;;;;;;23.80;19.70;;;5.90;80.60;;;;;;10642994;33;20433;-73
2021/12/15 08:05:13;;;;;;;23.58;17.10;;;5.60;81.30;;;;;;10641341;33;20030;-73
2021/12/15 08:11:15;;;;;;;20.05;16.35;;;5.70;81.40;;;;;;10642151;33;20030;-73
2021/12/15 08:17:17;;;;;;;22.92;16.80;;;5.90;81.70;;;;;;10808977;33;20050;-73
2021/12/15 08:23:23;;;;;;;28.87;20.62;;;6.20;81.10;;;;;;10821980;33;20028;-74
2021/12/15 08:29:25;;;;;;;26.98;18.65;;;6.10;80.90;;;;;;10826798;32;20032;-74
2021/12/15 08:35:36;;;;;;;24.05;15.93;;;5.60;81.30;;;;;;10826211;33;20192;-73
2021/12/15 08:41:39;;;;;;;21.35;15.88;;;5.30;81.90;;;;;;11044390;32;20029;-74
2021/12/15 08:47:42;;;;;;;21.27;16.55;;;5.30;82.90;;;;;;11057439;32;20060;-74
2021/12/15 08:53:49;;;;;;;24.20;15.93;;;5.60;82.80;;;;;;11057060;32;20026;-74
2021/12/15 08:59:51;;;;;;;26.10;18.50;;;5.80;82.70;;;;;;11057250;32;20025;-74
2021/12/15 09:05:55;;;;;;;20.17;13.15;;;5.80;82.30;;;;;;11056991;32;20029;-74
2021/12/15 09:11:57;;;;;;;18.67;12.63;;;5.60;82.70;;;;;;11057068;32;20420;-74
2021/12/15 09:18:00;;;;;;;17.58;11.70;;;5.80;83.40;;;;;;11056647;32;20049;-74
2021/12/15 09:24:05;;;;;;;19.12;15.13;;;5.90;83.10;;;;;;11056509;32;20057;-74
2021/12/15 09:30:11;;;;;;;20.00;13.60;;;6.00;84.00;;;;;;11056395;32;20420;-74
2021/12/15 09:37:05;;;;;;;17.67;11.95;;;6.60;84.10;;;;;;11055961;32;20030;-74
2021/12/15 09:43:09;;;;;;;16.30;12.20;;;7.20;83.50;;;;;;10313386;26;20818067;-74
2021/12/15 10:20:46;;;;;;;13.05;9.10;;;8.20;83.60;;;;;;10824278;33;20047;-69
2021/12/15 10:27:17;;;;;;;12.23;8.27;;;8.60;83.20;;;;;;10819076;33;20036;-69
2021/12/15 10:33:27;;;;;;;12.48;8.75;;;8.70;83.20;;;;;;10822940;33;20410;-69
2021/12/15 10:39:29;;;;;;;9.57;6.53;;;8.90;83.10;;;;;;10822352;33;20059;-69
2021/12/15 10:45:42;;;;;;;11.68;6.68;;;9.10;83.20;;;;;;10824700;32;20024;-69
2021/12/15 10:51:59;;;;;;;12.07;8.50;;;9.20;82.80;;;;;;10829195;33;20047;-69
2021/12/15 10:58:30;;;;;;;8.45;6.15;;;9.20;83.00;;;;;;10829269;33;20016;-69
2021/12/15 11:04:37;;;;;;;10.48;6.68;;;9.50;83.00;;;;;;10828771;33;20020;-69
2021/12/15 11:10:39;;;;;;;8.40;5.40;;;9.90;82.60;;;;;;10829088;32;20422;-69
2021/12/15 11:16:45;;;;;;;8.60;6.30;;;10.10;82.10;;;;;;10828825;33;20446;-69
2021/12/15 11:23:00;;;;;;;7.85;4.37;;;10.20;82.20;;;;;;10828555;33;20020;-69
2021/12/15 11:29:03;;;;;;;7.32;4.03;;;10.40;81.90;;;;;;10828412;33;20352;-69
2021/12/15 11:35:17;;;;;;;7.90;5.95;;;10.30;82.10;;;;;;10828267;33;20012;-69
2021/12/15 11:41:23;;;;;;;7.93;4.60;;;10.40;81.90;;;;;;10827987;32;20094;-69
2021/12/15 11:47:32;;;;;;;7.97;6.20;;;10.30;82.00;;;;;;10814610;33;20031;-69
2021/12/15 11:53:36;;;;;;;9.75;4.35;;;10.30;81.90;;;;;;10827898;33;20419;-69
2021/12/15 11:59:44;;;;;;;5.87;3.58;;;10.30;81.80;;;;;;10817893;32;20334;-69
2021/12/15 12:05:47;;;;;;;8.25;4.20;;;10.30;81.80;;;;;;10777400;33;20427;-69
2021/12/15 12:11:55;;;;;;;8.48;4.18;;;10.20;82.30;;;;;;10790287;33;20066;-69
2021/12/15 12:18:03;;;;;;;6.22;4.53;;;10.20;82.40;;;;;;10789818;33;20325;-69
2021/12/15 12:24:06;;;;;;;8.53;5.23;;;10.40;82.30;;;;;;10789917;33;20024;-69
2021/12/15 12:30:17;;;;;;;7.68;4.57;;;10.60;82.20;;;;;;10785952;33;20361;-70
2021/12/15 12:36:30;;;;;;;7.30;5.20;;;10.70;81.90;;;;;;10789684;33;20051;-70
2021/12/15 12:42:36;;;;;;;8.88;5.10;;;10.90;81.70;;;;;;10789380;33;20055;-70
2021/12/15 12:49:03;;;;;;;8.75;6.28;;;11.00;81.70;;;;;;10789305;33;20056;-70
2021/12/15 13:01:46;;;;;;;;;;;11.20;81.40;;;;;;10789408;33;20051;-70
2021/12/15 13:07:54;;;;;;;7.40;4.80;;;11.30;81.30;;;;;;10784434;33;19932;-70
2021/12/15 13:14:02;;;;;;;7.00;4.62;;;11.30;81.40;;;;;;10788687;33;20098;-70
2021/12/15 13:20:31;;;;;;;4.37;2.90;;;11.50;81.40;;;;;;10788614;33;20015;-70
2021/12/15 13:33:19;;;;;;;4.55;3.15;;;11.80;81.50;;;;;;10789569;33;20305;-70
2021/12/15 13:39:21;;;;;;;5.47;3.45;;;11.90;81.80;;;;;;10788206;32;20066;-70
2021/12/15 13:45:26;;;;;;;8.38;4.68;;;11.90;81.80;;;;;;10787877;33;20027;-70
2021/12/15 13:52:16;;;;;;;8.90;4.82;;;12.00;81.70;;;;;;10787990;33;20064;-70
2021/12/15 13:58:21;;;;;;;8.38;4.30;;;11.90;81.80;;;;;;10791304;33;20219;-70
2021/12/15 14:04:47;;;;;;;6.50;4.05;;;11.90;82.30;;;;;;10787543;33;20432;-70
2021/12/15 14:11:04;;;;;;;5.95;3.75;;;12.00;82.00;;;;;;10787263;33;20059;-70
2021/12/15 14:17:06;;;;;;;6.50;4.00;;;12.20;82.00;;;;;;10787370;33;20024;-69
2021/12/15 14:23:18;;;;;;;7.85;3.45;;;12.40;81.80;;;;;;10792884;33;20029;-70
2021/12/15 14:29:26;;;;;;;5.30;3.03;;;12.80;81.40;;;;;;10793361;33;20389;-70
2021/12/15 14:35:28;;;;;;;6.40;3.62;;;13.20;80.70;;;;;;10789081;33;20029;-70
2021/12/15 14:41:33;;;;;;;7.93;3.47;;;13.10;81.00;;;;;;10792822;33;20020;-70
2021/12/15 14:47:39;;;;;;;6.47;3.45;;;12.70;81.50;;;;;;10792991;33;20051;-70
2021/12/15 14:53:43;;;;;;;9.13;3.53;;;12.20;82.30;;;;;;10792015;33;20055;-70
2021/12/15 14:59:58;;;;;;;7.87;3.97;;;11.80;82.90;;;;;;10792354;33;20101;-69
2021/12/15 15:06:01;;;;;;;7.12;4.18;;;11.50;83.30;;;;;;10779230;33;20051;-70
2021/12/15 15:12:18;;;;;;;6.05;3.40;;;11.30;83.40;;;;;;10827653;33;20124;-70
2021/12/15 15:24:33;;;;;;;9.55;6.05;;;10.90;83.60;;;;;;10828697;33;20036;-70
2021/12/15 15:30:38;;;;;;;14.00;5.93;;;10.70;83.70;;;;;;10827916;32;20020;-70
2021/12/15 15:36:40;;;;;;;15.40;7.30;;;10.60;83.60;;;;;;10828377;32;20032;-70
2021/12/15 15:42:44;;;;;;;23.45;9.30;;;10.40;83.70;;;;;;10827869;33;20028;-70
2021/12/15 15:48:48;;;;;;;10.32;5.93;;;10.30;83.60;;;;;;10827969;33;20028;-70
2021/12/15 15:54:51;;;;;;;12.73;5.68;;;10.20;83.50;;;;;;10827808;33;20020;-69
2021/12/15 16:00:58;;;;;;;11.38;7.15;;;10.10;83.60;;;;;;10823777;33;20043;-70
2021/12/15 16:07:22;;;;;;;11.90;6.32;;;9.80;83.80;;;;;;10827192;33;20101;-70
2021/12/15 16:13:30;;;;;;;12.32;6.87;;;9.70;84.00;;;;;;10827178;33;20024;-70
2021/12/15 16:19:39;;;;;;;14.15;6.47;;;9.70;83.90;;;;;;10826784;33;20023;-69
2021/12/15 16:25:43;;;;;;;15.93;7.55;;;9.70;83.80;;;;;;10826596;33;20396;-69
2021/12/15 16:31:51;;;;;;;14.52;9.30;;;9.70;83.70;;;;;;10841873;32;20088;-69
2021/12/15 16:37:55;;;;;;;11.60;6.87;;;9.70;83.50;;;;;;10863661;32;20019;-69
2021/12/15 16:44:03;;;;;;;9.07;6.62;;;9.70;83.30;;;;;;10862497;32;20027;-69
2021/12/15 16:50:08;;;;;;;13.18;7.47;;;9.70;83.10;;;;;;10846945;32;20047;-69
2021/12/15 16:56:39;;;;;;;7.78;5.22;;;9.60;82.90;;;;;;10862675;32;20081;-69
2021/12/15 17:02:44;;;;;;;8.07;4.87;;;9.60;82.70;;;;;;10862360;32;20028;-69
2021/12/15 17:08:46;;;;;;;7.47;5.07;;;9.60;82.70;;;;;;10848441;32;20023;-70
2021/12/15 17:14:57;;;;;;;8.93;6.50;;;9.60;82.80;;;;;;10861888;32;20043;-69
2021/12/15 17:21:02;;;;;;;10.68;5.78;;;9.50;82.70;;;;;;10862436;32;20059;-73
2021/12/15 17:27:05;;;;;;;24.15;9.65;;;9.50;82.60;;;;;;10862346;32;20408;-73
2021/12/15 17:33:32;;;;;;;14.85;9.98;;;9.30;82.60;;;;;;10861662;32;20046;-73
2021/12/15 17:39:37;;;;;;;14.45;8.85;;;9.30;82.50;;;;;;10861874;32;20031;-73
2021/12/15 17:45:40;;;;;;;21.15;11.55;;;9.20;82.50;;;;;;10849710;27;20067;-73
2021/12/15 17:51:53;;;;;;;20.65;10.68;;;9.10;82.60;;;;;;10848490;32;20054;-73
2021/12/15 17:58:01;;;;;;;23.02;13.82;;;9.00;82.60;;;;;;10860089;32;20023;-73
2021/12/15 18:04:12;;;;;;;23.33;12.35;;;8.90;82.50;;;;;;10848634;32;20028;-73
2021/12/15 18:10:27;;;;;;;21.05;10.75;;;8.80;82.40;;;;;;10860872;32;20426;-74
2021/12/15 18:16:31;;;;;;;15.20;11.18;;;8.70;82.40;;;;;;10860359;32;20081;-74
2021/12/15 18:22:34;;;;;;;23.60;15.50;;;8.60;82.50;;;;;;10856650;32;20015;-74
2021/12/15 18:28:36;;;;;;;20.27;11.90;;;8.60;82.50;;;;;;10860757;32;20028;-73
2021/12/15 18:34:39;;;;;;;22.20;14.13;;;8.50;82.40;;;;;;10860676;32;20015;-74
2021/12/15 18:40:44;;;;;;;21.35;13.25;;;8.40;82.30;;;;;;10860473;32;20058;-73
2021/12/15 18:46:47;;;;;;;18.83;11.70;;;8.30;82.20;;;;;;10860263;32;20335;-73
2021/12/15 18:53:16;;;;;;;15.80;10.63;;;8.30;82.10;;;;;;10861432;32;20031;-70
2021/12/15 18:59:21;;;;;;;21.60;17.27;;;8.30;82.10;;;;;;10859917;32;20042;-70
2021/12/15 19:05:24;;;;;;;18.48;15.38;;;8.10;82.30;;;;;;10844630;32;20058;-70
2021/12/15 19:11:29;;;;;;;18.67;12.43;;;7.90;82.30;;;;;;10865765;32;20050;-70
2021/12/15 19:17:57;;;;;;;22.00;14.80;;;7.70;82.60;;;;;;10865668;32;20054;-70
2021/12/15 19:24:13;;;;;;;22.73;15.40;;;7.60;82.70;;;;;;10865531;32;20054;-70
2021/12/15 19:30:29;;;;;;;23.60;19.05;;;7.40;82.90;;;;;;10865559;32;20019;-70
2021/12/15 19:36:51;;;;;;;25.05;19.20;;;7.40;82.90;;;;;;10862837;32;20089;-70
2021/12/15 19:42:54;;;;;;;31.73;22.40;;;7.20;82.70;;;;;;10891198;32;20042;-70
2021/12/15 19:48:56;;;;;;;27.60;19.00;;;7.10;82.80;;;;;;10902209;32;20058;-70
2021/12/15 19:54:59;;;;;;;19.75;15.13;;;7.00;83.10;;;;;;10901811;32;20027;-70
2021/12/15 20:01:07;;;;;;;18.48;14.68;;;6.90;83.10;;;;;;10888339;32;20055;-70
2021/12/15 20:07:11;;;;;;;27.62;23.38;;;7.00;83.30;;;;;;10901683;32;20403;-70
2021/12/15 20:13:16;;;;;;;22.50;16.55;;;7.00;83.00;;;;;;10901553;32;20057;-70
2021/12/15 20:19:23;;;;;;;31.25;22.58;;;6.80;83.20;;;;;;10901029;32;20031;-70
2021/12/15 20:25:27;;;;;;;26.83;19.70;;;6.90;83.30;;;;;;10900936;32;20031;-69
2021/12/15 20:31:29;;;;;;;39.03;29.85;;;6.90;83.20;;;;;;10900865;32;20168;-70
2021/12/15 20:37:32;;;;;;;33.33;20.92;;;6.80;83.00;;;;;;10900705;32;20058;-69
2021/12/15 20:43:36;;;;;;;24.65;18.23;;;6.60;83.00;;;;;;10899946;32;20027;-70
2021/12/15 20:49:40;;;;;;;22.00;18.77;;;6.60;83.40;;;;;;10900386;32;20024;-70
2021/12/15 20:55:44;;;;;;;25.73;20.92;;;6.80;83.30;;;;;;10900310;32;20061;-70
2021/12/15 21:01:47;;;;;;;23.17;18.52;;;6.80;83.00;;;;;;10900177;32;20395;-69
2021/12/15 21:07:57;;;;;;;25.35;18.52;;;6.90;82.70;;;;;;10895894;32;20023;-70
2021/12/15 21:14:09;;;;;;;20.95;17.17;;;7.00;82.60;;;;;;10899788;32;20027;-70
2021/12/15 21:20:37;;;;;;;26.77;19.48;;;7.00;82.50;;;;;;10900430;32;20066;-70
2021/12/15 21:26:41;;;;;;;21.02;17.33;;;7.10;82.60;;;;;;10899665;32;20050;-69
2021/12/15 21:32:43;;;;;;;27.33;19.98;;;7.20;82.60;;;;;;10895281;32;20020;-70
2021/12/15 21:38:46;;;;;;;25.30;18.75;;;7.10;82.50;;;;;;10899537;32;20122;-70
2021/12/15 21:44:48;;;;;;;25.45;18.95;;;7.10;82.50;;;;;;10899087;32;20054;-70
2021/12/15 21:50:50;;;;;;;19.05;15.90;;;7.10;82.40;;;;;;10898985;32;20324;-70
2021/12/15 21:56:52;;;;;;;21.37;16.10;;;7.00;82.40;;;;;;10896020;32;20028;-70
2021/12/15 22:02:56;;;;;;;22.90;16.25;;;6.90;82.40;;;;;;10898722;32;20027;-69
2021/12/15 22:09:03;;;;;;;19.30;15.18;;;7.00;82.30;;;;;;10898548;32;20023;-69
2021/12/15 22:15:09;;;;;;;23.95;19.12;;;6.90;82.30;;;;;;10898496;32;20206;-69
2021/12/15 22:21:15;;;;;;;21.50;16.20;;;6.90;82.30;;;;;;10898167;32;20059;-69
2021/12/15 22:27:17;;;;;;;24.33;17.12;;;6.90;82.30;;;;;;10898128;32;20391;-69
2021/12/15 22:33:21;;;;;;;25.23;18.98;;;6.90;82.40;;;;;;10897921;32;20042;-70
2021/12/15 22:39:24;;;;;;;21.87;15.68;;;6.90;82.40;;;;;;10897805;32;20053;-70
2021/12/15 22:45:27;;;;;;;23.55;19.25;;;6.90;82.70;;;;;;10899522;32;20050;-69
2021/12/15 22:51:29;;;;;;;20.37;15.30;;;7.00;83.00;;;;;;10904143;32;20019;-69
2021/12/15 22:57:31;;;;;;;22.90;17.17;;;7.00;82.90;;;;;;10903978;32;20441;-70
2021/12/15 23:03:36;;;;;;;24.77;16.85;;;6.90;82.70;;;;;;10903690;32;20325;-70
2021/12/15 23:09:38;;;;;;;20.50;16.75;;;6.90;82.70;;;;;;10903564;32;20027;-70
2021/12/15 23:15:40;;;;;;;18.62;15.27;;;6.80;82.70;;;;;;10903539;32;20024;-69
2021/12/15 23:21:42;;;;;;;20.95;14.57;;;6.80;82.70;;;;;;10903360;32;20039;-69
2021/12/15 23:27:48;;;;;;;18.17;13.52;;;6.70;82.60;;;;;;10902942;32;20035;-69
2021/12/15 23:33:50;;;;;;;25.60;14.80;;;6.70;82.70;;;;;;10902788;32;20027;-69
